createdAt,value
2023-04-22T00:02:03.237Z,37.30
2023-04-22T00:04:39.682Z,33.80
2023-04-22T00:07:13.997Z,33.80
2023-04-22T00:09:49.475Z,25.50
2023-04-22T00:12:23.908Z,26.60
2023-04-22T00:15:00.209Z,28.50
2023-04-22T00:17:33.605Z,34.90
2023-04-22T00:20:11.890Z,31.50
2023-04-22T00:22:46.748Z,31.40
2023-04-22T00:25:21.714Z,26.00
2023-04-22T00:27:56.999Z,33.80
2023-04-22T00:30:42.234Z,31.70
2023-04-22T00:33:18.412Z,18.90
2023-04-22T00:35:53.495Z,27.20
2023-04-22T00:38:29.356Z,14.90
2023-04-22T00:41:04.792Z,23.00
2023-04-22T00:43:39.571Z,30.00
2023-04-22T00:46:16.143Z,31.70
2023-04-22T00:48:52.906Z,45.80
2023-04-22T00:51:29.230Z,38.90
2023-04-22T00:54:06.021Z,19.20
2023-04-22T00:56:42.142Z,35.30
2023-04-22T00:59:17.104Z,21.40
2023-04-22T01:02:22.290Z,47.60
2023-04-22T01:05:17.071Z,34.20
2023-04-22T01:08:12.433Z,14.80
2023-04-22T01:11:01.915Z,15.30
2023-04-22T01:13:42.745Z,23.70
2023-04-22T01:16:42.741Z,54.40
2023-04-22T01:22:02.695Z,29.10
2023-04-22T01:24:41.390Z,58.10
2023-04-22T01:27:42.592Z,63.30
2023-04-22T01:30:29.128Z,48.10
2023-04-22T01:34:15.437Z,48.40
2023-04-22T01:36:17.668Z,35.80
2023-04-22T01:39:03.267Z,60.80
2023-04-22T01:41:49.306Z,64.00
2023-04-22T01:44:25.369Z,53.80
2023-04-22T01:46:59.708Z,28.20
2023-04-22T01:49:38.131Z,39.00
2023-04-22T01:52:23.695Z,44.00
2023-04-22T01:55:05.112Z,55.20
2023-04-22T01:57:46.347Z,42.40
2023-04-22T02:00:42.934Z,35.80
2023-04-22T02:03:30.854Z,46.30
2023-04-22T02:06:11.436Z,42.60
2023-04-22T02:08:58.986Z,38.00
2023-04-22T02:11:35.223Z,36.80
2023-04-22T02:17:32.248Z,33.30
2023-04-22T02:20:43.149Z,21.50
2023-04-22T02:23:21.126Z,64.50
2023-04-22T02:26:17.576Z,27.20
2023-04-22T02:30:14.313Z,20.40
2023-04-22T02:31:57.125Z,23.10
2023-04-22T02:34:35.569Z,17.80
2023-04-22T02:38:16.314Z,25.70
2023-04-22T02:40:28.449Z,34.10
2023-04-22T02:44:21.821Z,26.30
2023-04-22T02:49:25.445Z,34.60
2023-04-22T02:52:06.241Z,28.20
2023-04-22T02:55:04.544Z,29.70
2023-04-22T02:57:41.521Z,32.60
2023-04-22T03:00:24.525Z,30.70
2023-04-22T03:03:14.415Z,34.80
2023-04-22T03:05:51.247Z,48.20
2023-04-22T03:08:29.578Z,25.40
2023-04-22T03:11:37.706Z,27.50
2023-04-22T03:14:03.953Z,34.50
2023-04-22T03:16:41.948Z,47.20
2023-04-22T03:19:18.165Z,34.70
2023-04-22T03:21:41.957Z,42.00
2023-04-22T03:23:56.269Z,35.30
2023-04-22T03:26:11.875Z,19.70
2023-04-22T03:28:46.417Z,24.40
2023-04-22T03:31:09.561Z,21.00
2023-04-22T03:33:44.235Z,26.80
2023-04-22T03:36:18.012Z,32.50
2023-04-22T03:38:57.322Z,32.10
2023-04-22T03:41:32.017Z,20.50
2023-04-22T03:44:10.829Z,30.90
2023-04-22T03:46:45.228Z,35.40
2023-04-22T03:49:26.286Z,20.90
2023-04-22T03:51:52.928Z,28.60
2023-04-22T03:54:19.187Z,27.50
2023-04-22T03:56:54.921Z,28.30
2023-04-22T03:59:13.528Z,35.30
2023-04-22T04:01:29.246Z,22.50
2023-04-22T04:04:05.367Z,13.10
2023-04-22T04:06:25.264Z,14.20
2023-04-22T04:09:19.340Z,14.20
2023-04-22T04:11:54.498Z,13.20
2023-04-22T04:14:29.010Z,14.40
2023-04-22T04:16:52.941Z,18.70
2023-04-22T04:19:34.296Z,18.10
2023-04-22T04:21:49.995Z,19.00
2023-04-22T04:24:14.579Z,16.30
2023-04-22T04:26:43.676Z,13.80
2023-04-22T04:29:22.268Z,18.30
2023-04-22T04:31:57.114Z,14.00
2023-04-22T04:34:11.992Z,15.80
2023-04-22T04:36:27.385Z,14.10
2023-04-22T04:39:01.586Z,18.90
2023-04-22T04:41:31.360Z,31.10
2023-04-22T04:43:54.944Z,90.50
2023-04-22T04:46:30.777Z,105.20
2023-04-22T04:49:06.973Z,113.70
2023-04-22T04:51:29.206Z,106.30
2023-04-22T04:53:48.640Z,64.90
2023-04-22T04:56:15.102Z,84.80
2023-04-22T04:58:38.733Z,87.90
2023-04-22T05:01:15.572Z,86.30
2023-04-22T05:03:34.954Z,82.80
2023-04-22T05:06:00.906Z,40.60
2023-04-22T05:08:35.947Z,31.50
2023-04-22T05:11:10.913Z,21.80
2023-04-22T05:13:44.998Z,26.10
2023-04-22T05:16:20.748Z,20.10
2023-04-22T05:18:37.369Z,21.30
2023-04-22T05:21:00.937Z,15.70
2023-04-22T05:23:15.974Z,24.30
2023-04-22T05:25:31.369Z,11.20
2023-04-22T05:30:16.840Z,25.70
2023-04-22T05:32:41.380Z,9.30
2023-04-22T05:34:55.920Z,20.00
2023-04-22T05:37:16.169Z,21.30
2023-04-22T05:39:35.579Z,20.20
2023-04-22T05:41:52.229Z,15.40
2023-04-22T05:44:16.968Z,16.90
2023-04-22T05:46:51.269Z,27.10
2023-04-22T05:49:11.090Z,19.80
2023-04-22T05:51:42.887Z,18.00
2023-04-22T05:54:02.032Z,20.30
2023-04-22T05:56:16.982Z,16.80
2023-04-22T05:58:40.857Z,17.90
2023-04-22T06:00:59.853Z,22.00
2023-04-22T06:03:54.533Z,22.10
2023-04-22T06:06:31.426Z,23.60
2023-04-22T06:09:05.894Z,18.70
2023-04-22T06:11:40.855Z,17.80
2023-04-22T06:14:15.586Z,20.20
2023-04-22T06:16:40.025Z,15.10
2023-04-22T06:19:13.767Z,18.90
2023-04-22T06:21:48.946Z,14.70
2023-04-22T06:24:23.036Z,16.00
2023-04-22T06:26:59.519Z,16.40
2023-04-22T06:29:34.824Z,16.90
2023-04-22T06:32:09.322Z,14.30
2023-04-22T06:34:44.707Z,10.30
2023-04-22T06:37:20.406Z,19.00
2023-04-22T06:39:54.525Z,24.20
2023-04-22T06:42:29.819Z,30.20
2023-04-22T06:45:03.840Z,49.90
2023-04-22T06:47:36.921Z,33.10
2023-04-22T06:50:14.875Z,28.90
2023-04-22T06:52:57.524Z,38.50
2023-04-22T06:55:30.776Z,45.00
2023-04-22T06:58:04.652Z,25.90
2023-04-22T07:00:39.627Z,19.20
2023-04-22T07:03:17.804Z,35.80
2023-04-22T07:05:54.116Z,30.30
2023-04-22T07:08:27.744Z,21.20
2023-04-22T07:11:04.792Z,32.00
2023-04-22T07:13:38.822Z,33.90
2023-04-22T07:16:14.978Z,18.70
2023-04-22T07:18:49.440Z,20.30
2023-04-22T07:21:23.820Z,16.40
2023-04-22T07:23:59.291Z,18.50
2023-04-22T07:26:35.728Z,14.90
2023-04-22T07:29:10.159Z,10.60
2023-04-22T07:31:45.132Z,9.00
2023-04-22T07:34:25.152Z,18.90
2023-04-22T07:37:00.132Z,12.80
2023-04-22T07:39:39.636Z,11.00
2023-04-22T07:42:14.060Z,10.10
2023-04-22T07:44:48.871Z,10.20
2023-04-22T07:47:24.077Z,11.90
2023-04-22T07:50:00.495Z,13.90
2023-04-22T07:52:35.342Z,5.60
2023-04-22T07:55:11.392Z,12.90
2023-04-22T07:57:48.324Z,5.70
2023-04-22T08:00:24.912Z,3.90
2023-04-22T08:03:00.872Z,7.10
2023-04-22T08:05:35.677Z,4.30
2023-04-22T08:08:11.017Z,4.80
2023-04-22T08:10:46.167Z,16.70
2023-04-22T08:13:20.808Z,5.20
2023-04-22T08:15:56.453Z,8.90
2023-04-22T08:18:32.241Z,7.70
2023-04-22T08:21:08.098Z,9.00
2023-04-22T08:23:42.621Z,6.50
2023-04-22T08:26:20.179Z,7.60
2023-04-22T08:28:55.671Z,6.00
2023-04-22T08:31:31.277Z,8.20
2023-04-22T08:34:05.712Z,11.00
2023-04-22T08:36:42.282Z,11.40
2023-04-22T08:39:17.529Z,7.80
2023-04-22T08:41:54.196Z,6.60
2023-04-22T08:44:30.205Z,8.60
2023-04-22T08:47:07.099Z,9.00
2023-04-22T08:49:43.261Z,9.70
2023-04-22T08:52:19.066Z,8.40
2023-04-22T08:54:53.831Z,4.50
2023-04-22T08:57:28.503Z,8.30
2023-04-22T09:00:05.356Z,9.20
2023-04-22T09:02:40.802Z,8.10
2023-04-22T09:05:17.959Z,9.00
2023-04-22T09:07:52.391Z,6.20
2023-04-22T09:10:26.395Z,6.10
2023-04-22T09:14:05.036Z,5.10
2023-04-22T09:15:59.757Z,3.30
2023-04-22T09:18:43.569Z,6.00
2023-04-22T09:21:19.536Z,5.80
2023-04-22T09:23:57.723Z,8.10
2023-04-22T09:26:33.569Z,5.20
2023-04-22T09:29:10.738Z,4.40
2023-04-22T09:31:52.414Z,4.60
2023-04-22T09:34:30.980Z,4.80
2023-04-22T09:37:08.136Z,4.10
2023-04-22T09:39:45.408Z,8.30
2023-04-22T09:42:21.266Z,5.30
2023-04-22T09:44:59.930Z,6.80
2023-04-22T09:47:43.902Z,6.00
2023-04-22T09:50:21.086Z,6.00
2023-04-22T09:53:05.502Z,5.20
2023-04-22T09:55:42.719Z,5.20
2023-04-22T09:58:18.705Z,3.60
2023-04-22T10:00:58.179Z,3.90
2023-04-22T10:04:39.744Z,4.10
2023-04-22T10:06:33.188Z,2.70
2023-04-22T10:08:57.422Z,3.20
2023-04-22T10:11:31.586Z,4.20
2023-04-22T10:14:08.001Z,3.80
2023-04-22T10:16:46.923Z,6.10
2023-04-22T10:19:27.075Z,6.10
2023-04-22T10:22:05.331Z,7.70
2023-04-22T10:24:43.845Z,3.60
2023-04-22T10:27:24.490Z,4.70
2023-04-22T10:29:59.886Z,4.20
2023-04-22T10:32:35.408Z,3.50
2023-04-22T10:35:30.075Z,4.00
2023-04-22T10:38:11.353Z,3.30
2023-04-22T10:41:08.824Z,2.10
2023-04-22T10:43:52.722Z,3.90
2023-04-22T10:47:01.156Z,1.90
2023-04-22T10:50:12.483Z,6.20
2023-04-22T10:52:47.681Z,2.50
2023-04-22T10:55:22.715Z,1.50
2023-04-22T10:57:58.305Z,2.20
2023-04-22T11:03:33.143Z,1.30
2023-04-22T11:06:28.653Z,4.30
2023-04-22T11:09:18.046Z,2.00
2023-04-22T11:11:54.382Z,2.20
2023-04-22T11:14:28.476Z,3.30
2023-04-22T11:17:03.637Z,2.30
2023-04-22T11:19:38.107Z,3.50
2023-04-22T11:22:14.807Z,4.00
2023-04-22T11:25:02.476Z,4.40
2023-04-22T11:27:36.897Z,1.90
2023-04-22T11:30:14.997Z,0.90
2023-04-22T11:32:51.048Z,2.20
2023-04-22T11:35:28.569Z,2.30
2023-04-22T11:38:05.304Z,1.30
2023-04-22T11:40:42.802Z,3.40
2023-04-22T11:43:20.950Z,2.50
2023-04-22T11:45:59.423Z,0.70
2023-04-22T11:48:33.781Z,1.70
2023-04-22T11:51:24.926Z,2.90
2023-04-22T11:54:02.293Z,0.90
2023-04-22T11:56:45.466Z,2.90
2023-04-22T11:59:19.836Z,1.40
2023-04-22T12:01:55.511Z,1.50
2023-04-22T12:04:32.331Z,2.10
2023-04-22T12:07:08.595Z,0.80
2023-04-22T12:09:43.909Z,1.30
2023-04-22T12:12:18.716Z,8.10
2023-04-22T12:14:55.393Z,2.20
2023-04-22T12:17:32.512Z,3.30
2023-04-22T12:20:08.563Z,1.00
2023-04-22T12:22:44.641Z,3.40
2023-04-22T12:25:25.839Z,0.90
2023-04-22T12:28:01.768Z,3.00
2023-04-22T12:30:37.249Z,1.50
2023-04-22T12:33:11.566Z,7.70
2023-04-22T12:35:48.301Z,9.80
2023-04-22T12:38:23.598Z,6.30
2023-04-22T12:41:00.504Z,12.10
2023-04-22T12:43:38.929Z,27.70
2023-04-22T12:46:14.485Z,36.20
2023-04-22T12:48:49.833Z,18.00
2023-04-22T12:51:24.008Z,15.50
2023-04-22T12:53:59.560Z,18.60
2023-04-22T12:56:35.446Z,12.60
2023-04-22T12:59:12.447Z,5.30
2023-04-22T13:01:47.540Z,2.70
2023-04-22T13:04:22.101Z,2.60
2023-04-22T13:06:59.174Z,1.40
2023-04-22T13:09:33.477Z,3.40
2023-04-22T13:12:07.985Z,2.90
2023-04-22T13:14:42.928Z,3.10
2023-04-22T13:17:18.845Z,4.10
2023-04-22T13:19:54.141Z,1.40
2023-04-22T13:22:30.532Z,0.80
2023-04-22T13:25:05.677Z,1.80
2023-04-22T13:27:41.499Z,4.70
2023-04-22T13:30:18.893Z,1.60
2023-04-22T13:32:53.322Z,2.40
2023-04-22T13:35:28.622Z,1.00
2023-04-22T13:38:03.281Z,6.40
2023-04-22T13:40:39.728Z,4.90
2023-04-22T13:43:15.574Z,1.70
2023-04-22T13:45:50.609Z,5.80
2023-04-22T13:48:26.595Z,0.50
2023-04-22T13:51:02.276Z,1.90
2023-04-22T13:53:36.848Z,1.00
2023-04-22T13:56:13.925Z,0.60
2023-04-22T13:58:51.496Z,2.60
2023-04-22T14:01:26.518Z,2.00
2023-04-22T14:04:01.150Z,1.90
2023-04-22T14:06:36.288Z,2.00
2023-04-22T14:09:11.010Z,11.30
2023-04-22T14:11:47.647Z,3.00
2023-04-22T14:14:23.127Z,1.20
2023-04-22T14:19:46.496Z,3.50
2023-04-22T14:22:21.637Z,10.70
2023-04-22T14:24:56.986Z,2.90
2023-04-22T14:27:31.077Z,5.60
2023-04-22T14:30:06.274Z,3.00
2023-04-22T14:32:41.234Z,3.30
2023-04-22T14:35:18.220Z,5.90
2023-04-22T14:37:52.936Z,10.90
2023-04-22T14:40:29.451Z,4.60
2023-04-22T14:43:06.029Z,3.60
2023-04-22T14:45:41.550Z,3.10
2023-04-22T14:48:15.866Z,5.40
2023-04-22T14:50:52.410Z,4.90
2023-04-22T14:53:27.397Z,4.40
2023-04-22T14:56:04.027Z,3.60
2023-04-22T14:58:39.195Z,4.60
2023-04-22T15:01:14.060Z,3.40
2023-04-22T15:03:49.985Z,6.50
2023-04-22T15:06:28.839Z,5.30
2023-04-22T15:09:03.848Z,9.00
2023-04-22T15:11:39.366Z,8.80
2023-04-22T15:14:16.687Z,10.40
2023-04-22T15:16:53.923Z,12.30
2023-04-22T15:19:29.435Z,8.10
2023-04-22T15:22:04.843Z,7.50
2023-04-22T15:24:39.782Z,9.60
2023-04-22T15:27:15.266Z,10.10
2023-04-22T15:30:01.254Z,5.20
2023-04-22T15:32:40.409Z,6.20
2023-04-22T15:35:17.331Z,7.50
2023-04-22T15:37:58.931Z,7.70
2023-04-22T15:40:34.154Z,79.50
2023-04-22T15:43:10.233Z,104.00
2023-04-22T15:45:45.282Z,64.50
2023-04-22T15:48:42.473Z,30.70
2023-04-22T15:51:18.954Z,30.70
2023-04-22T15:54:13.138Z,30.20
2023-04-22T15:56:52.263Z,28.90
2023-04-22T15:59:27.511Z,25.50
2023-04-22T16:02:02.142Z,22.40
2023-04-22T16:04:37.631Z,33.20
2023-04-22T16:07:13.575Z,83.90
2023-04-22T16:09:48.810Z,47.50
2023-04-22T16:12:24.521Z,23.10
2023-04-22T16:15:02.062Z,12.40
2023-04-22T16:17:37.218Z,24.10
2023-04-22T16:20:14.028Z,34.50
2023-04-22T16:22:51.650Z,24.70
2023-04-22T16:25:29.459Z,23.00
2023-04-22T16:28:04.228Z,19.10
2023-04-22T16:30:40.198Z,15.60
2023-04-22T16:33:14.850Z,27.70
2023-04-22T16:35:51.144Z,35.60
2023-04-22T16:38:25.352Z,44.70
2023-04-22T16:41:00.728Z,21.20
2023-04-22T16:43:36.245Z,26.00
2023-04-22T16:46:25.598Z,32.10
2023-04-22T16:49:02.451Z,35.50
2023-04-22T16:51:37.639Z,37.30
2023-04-22T16:54:13.357Z,11.60
2023-04-22T16:56:47.127Z,16.80
2023-04-22T16:59:21.892Z,13.30
2023-04-22T17:01:58.729Z,24.20
2023-04-22T17:04:33.796Z,21.60
2023-04-22T17:07:08.817Z,23.30
2023-04-22T17:09:43.769Z,14.60
2023-04-22T17:12:20.646Z,35.50
2023-04-22T17:14:54.790Z,16.20
2023-04-22T17:17:29.016Z,19.60
2023-04-22T17:20:07.595Z,25.90
2023-04-22T17:22:42.728Z,22.30
2023-04-22T17:25:20.069Z,19.00
2023-04-22T17:30:44.422Z,19.40
2023-04-22T17:33:18.633Z,16.30
2023-04-22T17:35:53.977Z,19.30
2023-04-22T17:38:30.885Z,7.90
2023-04-22T17:41:06.497Z,21.40
2023-04-22T17:43:41.627Z,9.30
2023-04-22T17:46:17.145Z,18.60
2023-04-22T17:48:52.502Z,19.20
2023-04-22T17:51:27.739Z,2.70
2023-04-22T17:54:02.849Z,9.90
2023-04-22T17:56:37.301Z,7.40
2023-04-22T17:59:13.820Z,16.20
2023-04-22T18:01:49.179Z,10.30
2023-04-22T18:04:24.999Z,11.10
2023-04-22T18:07:01.301Z,21.10
2023-04-22T18:09:36.068Z,6.00
2023-04-22T18:12:12.280Z,9.10
2023-04-22T18:14:48.908Z,6.20
2023-04-22T18:17:23.719Z,21.40
2023-04-22T18:20:14.010Z,16.80
2023-04-22T18:22:53.257Z,15.80
2023-04-22T18:25:28.608Z,15.00
2023-04-22T18:28:03.179Z,21.90
2023-04-22T18:30:40.426Z,17.50
2023-04-22T18:33:14.628Z,12.50
2023-04-22T18:35:48.980Z,7.20
2023-04-22T18:38:23.988Z,16.70
2023-04-22T18:40:58.436Z,11.00
2023-04-22T18:43:33.499Z,11.40
2023-04-22T18:46:09.346Z,13.00
2023-04-22T18:48:46.621Z,13.90
2023-04-22T18:51:21.415Z,17.20
2023-04-22T18:53:57.112Z,4.70
2023-04-22T18:56:35.254Z,6.50
2023-04-22T18:59:09.051Z,10.10
2023-04-22T19:01:44.535Z,6.60
2023-04-22T19:04:19.062Z,11.40
2023-04-22T19:06:53.314Z,18.30
2023-04-22T19:09:28.715Z,22.80
2023-04-22T19:12:04.655Z,23.10
2023-04-22T19:14:41.391Z,9.00
2023-04-22T19:17:15.389Z,7.20
2023-04-22T19:19:49.176Z,9.00
2023-04-22T19:23:16.108Z,10.80
2023-04-22T19:25:33.455Z,16.10
2023-04-22T19:28:11.834Z,11.10
2023-04-22T19:31:25.980Z,16.20
2023-04-22T19:34:00.631Z,12.30
2023-04-22T19:36:37.762Z,9.50
2023-04-22T19:39:13.488Z,5.90
2023-04-22T19:42:01.696Z,11.90
2023-04-22T19:44:31.354Z,17.30
2023-04-22T19:47:18.517Z,24.10
2023-04-22T19:50:08.524Z,20.60
2023-04-22T19:52:51.857Z,6.10
2023-04-22T19:55:42.261Z,9.90
2023-04-22T19:58:22.942Z,22.90
2023-04-22T20:01:02.375Z,15.10
2023-04-22T20:03:39.797Z,15.70
2023-04-22T20:06:23.842Z,20.70
2023-04-22T20:09:06.618Z,19.10
2023-04-22T20:12:03.076Z,14.60
2023-04-22T20:14:59.001Z,17.40
2023-04-22T20:18:18.696Z,10.90
2023-04-22T20:20:58.917Z,19.10
2023-04-22T20:23:54.455Z,21.00
2023-04-22T20:26:39.452Z,11.70
2023-04-22T20:29:49.513Z,12.50
2023-04-22T20:32:46.444Z,12.80
2023-04-22T20:35:26.731Z,12.90
2023-04-22T20:38:25.990Z,9.10
2023-04-22T20:41:12.109Z,7.60
2023-04-22T20:43:56.951Z,8.10
2023-04-22T20:46:31.675Z,7.30
2023-04-22T20:49:06.103Z,20.80
2023-04-22T20:51:44.777Z,10.80
2023-04-22T20:54:29.094Z,8.80
2023-04-22T20:57:06.470Z,13.30
2023-04-22T20:59:40.378Z,15.90
2023-04-22T21:02:15.898Z,5.90
2023-04-22T21:04:51.412Z,7.40
2023-04-22T21:07:27.941Z,5.70
2023-04-22T21:10:03.900Z,8.90
2023-04-22T21:12:43.243Z,14.20
2023-04-22T21:15:22.255Z,16.00
2023-04-22T21:17:58.620Z,19.90
2023-04-22T21:20:35.568Z,7.00
2023-04-22T21:23:13.545Z,3.50
2023-04-22T21:25:49.896Z,5.70
2023-04-22T21:28:27.522Z,8.40
2023-04-22T21:31:03.722Z,6.20
2023-04-22T21:33:38.608Z,12.20
2023-04-22T21:36:14.002Z,7.70
2023-04-22T21:38:47.673Z,5.20
2023-04-22T21:41:11.854Z,5.70
2023-04-22T21:43:46.000Z,7.00
2023-04-22T21:46:23.274Z,6.50
2023-04-22T21:48:58.482Z,3.90
2023-04-22T21:51:32.356Z,5.40
2023-04-22T21:54:08.542Z,7.90
2023-04-22T21:56:45.053Z,9.30
2023-04-22T21:59:19.657Z,6.20
2023-04-22T22:01:55.033Z,10.00
2023-04-22T22:04:29.588Z,3.50
2023-04-22T22:07:04.185Z,12.20
2023-04-22T22:09:40.529Z,5.20
2023-04-22T22:12:17.005Z,16.10
2023-04-22T22:14:41.560Z,7.30
2023-04-22T22:17:21.010Z,4.70
2023-04-22T22:20:00.417Z,6.10
2023-04-22T22:22:29.826Z,5.00
2023-04-22T22:25:04.744Z,8.50
2023-04-22T22:27:36.177Z,3.90
2023-04-22T22:30:26.365Z,8.70
2023-04-22T22:33:02.372Z,7.20
2023-04-22T22:35:36.134Z,12.70
2023-04-22T22:38:10.504Z,5.40
2023-04-22T22:40:46.676Z,14.50
2023-04-22T22:43:34.202Z,10.20
2023-04-22T22:46:11.246Z,7.40
2023-04-22T22:48:48.404Z,11.10
2023-04-22T22:51:23.937Z,6.20
2023-04-22T22:54:01.177Z,8.50
2023-04-22T22:56:37.147Z,5.00
2023-04-22T22:59:11.730Z,9.90
2023-04-22T23:02:35.477Z,4.60
2023-04-22T23:04:47.486Z,4.40
2023-04-22T23:07:22.875Z,2.10
2023-04-22T23:09:45.364Z,4.30
2023-04-22T23:12:20.604Z,4.80
2023-04-22T23:14:54.613Z,4.30
2023-04-22T23:17:30.506Z,6.60
2023-04-22T23:20:08.288Z,5.00
2023-04-22T23:22:33.397Z,6.10
2023-04-22T23:25:09.748Z,3.10
2023-04-22T23:27:45.483Z,4.90
2023-04-22T23:30:22.161Z,4.90
2023-04-22T23:33:00.465Z,6.90
2023-04-22T23:35:37.136Z,10.30
2023-04-22T23:38:13.749Z,4.80
2023-04-22T23:40:47.951Z,5.90
2023-04-22T23:43:23.654Z,13.80
2023-04-22T23:46:00.969Z,14.00
2023-04-22T23:48:35.175Z,8.00
2023-04-22T23:51:10.165Z,5.60
2023-04-22T23:53:45.390Z,6.10
2023-04-22T23:56:24.167Z,5.30
2023-04-22T23:59:02.106Z,4.00
